createdAt,value
2019-01-12T00:00:00.781Z,41.2
2019-01-12T00:00:51.126Z,41.1
2019-01-12T00:01:41.183Z,41.1
2019-01-12T00:02:30.666Z,41.1
2019-01-12T00:03:21.556Z,41.1
2019-01-12T00:04:11.058Z,41.1
2019-01-12T00:05:01.684Z,41.1
2019-01-12T00:05:52.010Z,41.1
2019-01-12T00:06:42.133Z,41.1
2019-01-12T00:07:31.628Z,41.1
2019-01-12T00:08:21.938Z,41.1
2019-01-12T00:09:12.963Z,41.1
2019-01-12T00:10:01.539Z,41
2019-01-12T00:10:51.591Z,41
2019-01-12T00:11:41.648Z,41
2019-01-12T00:12:31.428Z,41
2019-01-12T00:13:21.822Z,41
2019-01-12T00:14:12.103Z,40.9
2019-01-12T00:15:01.389Z,40.9
2019-01-12T00:15:51.948Z,40.9
2019-01-12T00:34:14.069Z,40.6
2019-01-12T00:35:04.091Z,40.6
2019-01-12T00:35:54.681Z,40.6
2019-01-12T00:36:44.454Z,40.6
2019-01-12T00:37:34.281Z,40.6
2019-01-12T00:38:24.566Z,40.6
2019-01-12T00:39:14.124Z,40.6
2019-01-12T00:40:04.699Z,40.6
2019-01-12T00:40:55.006Z,40.5
2019-01-12T00:41:44.226Z,40.6
2019-01-12T00:42:34.843Z,40.5
2019-01-12T00:43:24.943Z,40.5
2019-01-12T00:44:13.571Z,40.5
2019-01-12T00:45:04.745Z,40.5
2019-01-12T00:45:54.803Z,40.4
2019-01-12T00:46:44.846Z,40.5
2019-01-12T00:47:36.833Z,40.4
2019-01-12T00:48:24.463Z,40.4
2019-01-12T00:49:15.293Z,40.4
2019-01-12T00:50:05.077Z,40.4
2019-01-12T00:50:55.135Z,40.4
2019-01-12T00:51:44.955Z,40.4
2019-01-12T00:52:35.238Z,40.4
2019-01-12T00:53:25.055Z,40.3
2019-01-12T00:54:15.358Z,40.4
2019-01-12T00:55:05.429Z,40.3
2019-01-12T00:55:55.470Z,40.3
2019-01-12T00:56:45.252Z,40.3
2019-01-12T00:57:35.884Z,40.3
2019-01-12T00:58:25.636Z,40.3
2019-01-12T00:59:15.488Z,40.3
2019-01-12T01:00:06.321Z,40.3
2019-01-12T01:00:55.895Z,40.3
2019-01-12T01:01:45.672Z,40.3
2019-01-12T01:02:35.718Z,40.2
2019-01-12T01:03:25.759Z,40.2
2019-01-12T01:04:16.100Z,40.2
2019-01-12T01:05:05.667Z,40.1
2019-01-12T01:05:55.970Z,40.1
2019-01-12T01:06:45.439Z,40.1
2019-01-12T01:07:36.541Z,40.1
2019-01-12T01:08:26.039Z,40.1
2019-01-12T01:09:15.989Z,40.1
2019-01-12T01:10:06.255Z,40.1
2019-01-12T01:10:56.231Z,40.1
2019-01-12T01:11:46.274Z,40.1
2019-01-12T01:12:36.332Z,40.1
2019-01-12T01:13:26.394Z,40
2019-01-12T01:14:17.271Z,40
2019-01-12T01:15:07.421Z,40
2019-01-12T01:15:56.347Z,40
2019-01-12T01:16:46.418Z,40
2019-01-12T01:17:36.471Z,39.9
2019-01-12T01:18:26.786Z,39.9
2019-01-12T01:19:16.299Z,39.9
2019-01-12T01:20:07.131Z,39.9
2019-01-12T01:20:56.889Z,39.9
2019-01-12T01:21:46.680Z,39.9
2019-01-12T01:22:37.574Z,39.9
2019-01-12T01:23:27.065Z,39.9
2019-01-12T01:24:17.673Z,39.9
2019-01-12T01:25:07.850Z,39.9
2019-01-12T01:25:57.806Z,39.8
2019-01-12T01:26:48.128Z,39.8
2019-01-12T01:27:37.906Z,39.8
2019-01-12T01:28:27.684Z,39.8
2019-01-12T01:29:18.038Z,39.8
2019-01-12T01:30:07.805Z,39.8
2019-01-12T01:30:57.910Z,39.8
2019-01-12T01:31:47.641Z,39.8
2019-01-12T01:32:38.028Z,39.8
2019-01-12T01:33:32.998Z,39.8
2019-01-12T01:34:18.342Z,39.7
2019-01-12T01:35:07.916Z,39.7
2019-01-12T01:35:58.740Z,39.7
2019-01-12T01:36:48.525Z,39.7
2019-01-12T01:37:38.852Z,39.6
2019-01-12T01:38:28.620Z,39.7
2019-01-12T01:39:18.430Z,39.6
2019-01-12T01:40:07.908Z,39.6
2019-01-12T01:40:59.065Z,39.6
2019-01-12T01:41:48.372Z,39.6
2019-01-12T01:42:38.445Z,39.6
2019-01-12T01:43:28.499Z,39.6
2019-01-12T01:44:17.502Z,39.6
2019-01-12T01:45:08.665Z,39.6
2019-01-12T01:45:58.157Z,39.5
2019-01-12T01:46:48.914Z,39.6
2019-01-12T01:47:39.029Z,39.5
2019-01-12T01:48:29.597Z,39.5
2019-01-12T01:49:18.817Z,39.5
2019-01-12T01:50:09.694Z,39.5
2019-01-12T01:50:59.492Z,39.4
2019-01-12T01:51:48.994Z,39.5
2019-01-12T01:52:39.316Z,39.4
2019-01-12T01:53:28.826Z,39.4
2019-01-12T01:54:19.979Z,39.4
2019-01-12T01:55:09.212Z,39.4
2019-01-12T01:55:59.264Z,39.4
2019-01-12T01:56:49.369Z,39.4
2019-01-12T01:57:39.689Z,39.4
2019-01-12T01:58:29.737Z,39.4
2019-01-12T01:59:20.331Z,39.4
2019-01-12T02:00:10.116Z,39.4
2019-01-12T02:01:00.461Z,39.3
2019-01-12T02:01:49.731Z,39.3
2019-01-12T02:02:40.536Z,39.3
2019-01-12T02:03:30.336Z,39.3
2019-01-12T02:04:20.388Z,39.3
2019-01-12T02:05:10.173Z,39.3
2019-01-12T02:05:59.444Z,39.3
2019-01-12T02:06:50.569Z,39.3
2019-01-12T02:07:40.594Z,39.3
2019-01-12T02:08:30.743Z,39.2
2019-01-12T02:09:20.988Z,39.2
2019-01-12T02:10:11.088Z,39.2
2019-01-12T02:11:00.280Z,39.2
2019-01-12T02:11:51.191Z,39.2
2019-01-12T02:12:40.475Z,39.1
2019-01-12T02:13:30.191Z,39.2
2019-01-12T02:14:21.052Z,39.1
2019-01-12T02:15:10.588Z,39.1
2019-01-12T02:16:01.185Z,39.1
2019-01-12T02:16:50.965Z,39.1
2019-01-12T02:17:41.332Z,39.1
2019-01-12T02:18:31.368Z,39.1
2019-01-12T02:19:21.140Z,39.1
2019-01-12T02:20:10.993Z,39.1
2019-01-12T02:21:01.252Z,39.1
2019-01-12T02:21:51.588Z,39.1
2019-01-12T02:22:41.930Z,39
2019-01-12T02:23:31.407Z,39
2019-01-12T02:24:21.504Z,39
2019-01-12T02:25:11.824Z,39
2019-01-12T02:26:02.142Z,39
2019-01-12T02:26:50.809Z,39
2019-01-12T02:27:41.400Z,38.9
2019-01-12T02:28:32.314Z,38.9
2019-01-12T02:29:21.804Z,38.9
2019-01-12T02:30:11.915Z,38.9
2019-01-12T02:31:02.220Z,38.9
2019-01-12T02:31:52.038Z,38.9
2019-01-12T02:32:42.397Z,38.9
2019-01-12T02:33:32.652Z,38.9
2019-01-12T02:34:22.256Z,38.9
2019-01-12T02:35:12.519Z,38.9
2019-01-12T02:36:02.284Z,38.9
2019-01-12T02:36:53.015Z,38.9
2019-01-12T02:37:42.651Z,38.8
2019-01-12T02:38:32.451Z,38.8
2019-01-12T02:39:22.797Z,38.8
2019-01-12T02:40:12.143Z,38.8
2019-01-12T02:41:01.861Z,38.8
2019-01-12T02:41:52.686Z,38.8
2019-01-12T02:42:42.720Z,38.8
2019-01-12T02:43:32.241Z,38.8
2019-01-12T02:44:23.120Z,38.8
2019-01-12T02:45:12.911Z,38.8
2019-01-12T02:46:03.604Z,38.8
2019-01-12T02:46:52.742Z,38.7
2019-01-12T02:47:43.108Z,38.7
2019-01-12T02:48:33.394Z,38.7
2019-01-12T02:49:23.484Z,38.7
2019-01-12T02:50:13.822Z,38.6
2019-01-12T02:51:03.028Z,38.7
2019-01-12T02:51:53.366Z,38.6
2019-01-12T02:52:43.433Z,38.6
2019-01-12T02:53:33.743Z,38.6
2019-01-12T02:54:23.511Z,38.6
2019-01-12T02:55:13.785Z,38.6
2019-01-12T02:56:03.701Z,38.6
2019-01-12T02:56:53.980Z,38.6
2019-01-12T02:57:43.843Z,38.6
2019-01-12T02:58:34.367Z,38.6
2019-01-12T02:59:23.871Z,38.6
2019-01-12T03:00:14.519Z,38.6
2019-01-12T03:01:04.337Z,38.6
2019-01-12T03:01:54.576Z,38.5
2019-01-12T03:02:44.110Z,38.5
2019-01-12T03:03:33.879Z,38.5
2019-01-12T03:04:23.937Z,38.5
2019-01-12T03:05:14.567Z,38.5
2019-01-12T03:06:04.679Z,38.4
2019-01-12T03:06:54.652Z,38.4
2019-01-12T03:07:44.234Z,38.4
2019-01-12T03:08:34.779Z,38.4
2019-01-12T03:09:24.517Z,38.4
2019-01-12T03:10:14.944Z,38.4
2019-01-12T03:11:05.221Z,38.4
2019-01-12T03:11:55.274Z,38.4
2019-01-12T03:12:44.489Z,38.4
2019-01-12T03:13:35.404Z,38.4
2019-01-12T03:14:24.652Z,38.4
2019-01-12T03:15:14.429Z,38.4
2019-01-12T03:16:04.776Z,38.3
2019-01-12T03:16:55.357Z,38.3
2019-01-12T03:17:45.451Z,38.3
2019-01-12T03:18:35.715Z,38.3
2019-01-12T03:19:25.562Z,38.3
2019-01-12T03:20:15.306Z,38.3
2019-01-12T03:21:05.689Z,38.3
2019-01-12T03:21:55.973Z,38.3
2019-01-12T03:22:45.786Z,38.3
2019-01-12T03:23:35.559Z,38.3
2019-01-12T03:24:25.640Z,38.2
2019-01-12T03:25:24.328Z,38.2
2019-01-12T03:26:05.456Z,38.2
2019-01-12T03:26:55.749Z,38.3
2019-01-12T03:27:45.271Z,38.2
2019-01-12T03:28:36.188Z,38.2
2019-01-12T03:29:25.799Z,38.2
2019-01-12T03:30:16.138Z,38.2
2019-01-12T03:31:06.510Z,38.2
2019-01-12T03:31:56.587Z,38.1
2019-01-12T03:32:46.035Z,38.1
2019-01-12T03:33:36.867Z,38.1
2019-01-12T03:34:26.521Z,38.1
2019-01-12T03:35:16.338Z,38.1
2019-01-12T03:36:05.793Z,38.1
2019-01-12T03:36:56.120Z,38.1
2019-01-12T03:37:46.772Z,38.1
2019-01-12T03:38:35.978Z,38.1
2019-01-12T03:39:26.584Z,38.1
2019-01-12T03:40:17.332Z,38.1
2019-01-12T03:41:07.278Z,38.1
2019-01-12T03:41:56.217Z,38
2019-01-12T03:42:46.522Z,38
2019-01-12T03:43:37.154Z,38
2019-01-12T03:44:26.959Z,38
2019-01-12T03:45:17.288Z,38
2019-01-12T03:46:06.861Z,38
2019-01-12T03:46:57.619Z,38
2019-01-12T03:47:47.512Z,37.9
2019-01-12T03:48:37.237Z,37.9
2019-01-12T03:49:27.554Z,37.9
2019-01-12T03:50:17.606Z,37.9
2019-01-12T03:51:07.097Z,37.9
2019-01-12T03:51:57.682Z,37.9
2019-01-12T03:52:48.066Z,37.9
2019-01-12T03:53:37.568Z,37.9
2019-01-12T03:54:27.596Z,37.9
2019-01-12T03:55:25.997Z,37.9
2019-01-12T03:56:07.755Z,37.9
2019-01-12T03:56:57.804Z,37.8
2019-01-12T03:57:48.144Z,37.8
2019-01-12T03:58:37.678Z,37.8
2019-01-12T03:59:28.203Z,37.8
2019-01-12T04:00:18.327Z,37.8
2019-01-12T04:01:08.688Z,37.8
2019-01-12T04:01:58.438Z,37.8
2019-01-12T04:02:48.738Z,37.8
2019-01-12T04:03:38.260Z,37.8
2019-01-12T04:04:28.580Z,37.8
2019-01-12T04:05:18.344Z,37.8
2019-01-12T04:06:08.944Z,37.8
2019-01-12T04:06:58.446Z,37.8
2019-01-12T04:07:48.794Z,37.7
2019-01-12T04:08:38.879Z,37.7
2019-01-12T04:09:28.645Z,37.7
2019-01-12T04:10:18.993Z,37.7
2019-01-12T04:11:09.329Z,37.7
2019-01-12T04:11:58.793Z,37.7
2019-01-12T04:12:48.856Z,37.6
2019-01-12T04:13:39.190Z,37.7
2019-01-12T04:14:29.235Z,37.6
2019-01-12T04:15:19.329Z,37.7
2019-01-12T04:16:09.352Z,37.6
2019-01-12T04:16:59.415Z,37.6
2019-01-12T04:17:49.536Z,37.6
2019-01-12T04:18:39.217Z,37.6
2019-01-12T04:19:29.575Z,37.6
2019-01-12T04:20:19.131Z,37.6
2019-01-12T04:21:09.120Z,37.6
2019-01-12T04:21:59.742Z,37.6
2019-01-12T04:22:49.782Z,37.6
2019-01-12T04:23:39.909Z,37.6
2019-01-12T04:24:30.187Z,37.6
2019-01-12T04:25:37.866Z,37.6
2019-01-12T04:26:09.459Z,37.6
2019-01-12T04:27:00.104Z,37.5
2019-01-12T04:27:49.613Z,37.5
2019-01-12T04:28:39.759Z,37.5
2019-01-12T04:29:29.784Z,37.5
2019-01-12T04:30:20.114Z,37.5
2019-01-12T04:31:10.003Z,37.5
2019-01-12T04:31:59.666Z,37.4
2019-01-12T04:32:49.254Z,37.5
2019-01-12T04:33:39.765Z,37.4
2019-01-12T04:34:30.597Z,37.4
2019-01-12T04:35:20.916Z,37.4
2019-01-12T04:36:10.148Z,37.4
2019-01-12T04:37:00.189Z,37.4
2019-01-12T04:37:50.831Z,37.4
2019-01-12T04:38:40.096Z,37.4
2019-01-12T04:39:31.229Z,37.4
2019-01-12T04:40:20.774Z,37.4
2019-01-12T04:41:11.051Z,37.4
2019-01-12T04:42:01.361Z,37.4
2019-01-12T04:42:51.246Z,37.4
2019-01-12T04:43:40.911Z,37.4
2019-01-12T04:44:30.683Z,37.4
2019-01-12T04:45:21.579Z,37.4
2019-01-12T04:46:11.679Z,37.3
2019-01-12T05:03:25.087Z,37.1
2019-01-12T05:04:14.154Z,37.1
2019-01-12T05:05:06.918Z,37.1
2019-01-12T05:06:24.280Z,37.1
2019-01-12T05:07:06.529Z,37.1
2019-01-12T05:07:41.612Z,37.1
2019-01-12T05:08:32.804Z,37.1
2019-01-12T05:09:20.787Z,37.1
2019-01-12T05:10:11.885Z,37.1
2019-01-12T05:11:01.074Z,37.1
2019-01-12T05:12:23.800Z,37.1
2019-01-12T05:12:50.305Z,37.1
2019-01-12T05:13:40.412Z,37.1
2019-01-12T05:14:30.681Z,37.1
2019-01-12T05:15:20.640Z,37.1
2019-01-12T05:16:10.166Z,37.1
2019-01-12T05:17:00.899Z,37
2019-01-12T05:17:51.081Z,37
2019-01-12T05:18:40.481Z,37
2019-01-12T05:20:00.181Z,37
2019-01-12T05:20:26.298Z,37
2019-01-12T05:21:31.334Z,37
2019-01-12T05:22:06.565Z,37
2019-01-12T05:22:57.439Z,37
2019-01-12T09:17:47.702Z,31.8
2019-01-12T09:18:37.480Z,31.8
2019-01-12T09:19:27.838Z,31.8
2019-01-12T09:20:17.926Z,31.8
2019-01-12T09:21:08.190Z,31.8
2019-01-12T09:21:58.020Z,31.7
2019-01-12T09:22:48.297Z,31.8
2019-01-12T09:23:38.383Z,31.7
2019-01-12T09:24:28.412Z,31.7
2019-01-12T09:25:18.507Z,31.7
2019-01-12T09:26:08.293Z,31.7
2019-01-12T09:26:58.034Z,31.7
2019-01-12T09:27:48.367Z,31.7
2019-01-12T09:28:38.207Z,31.7
2019-01-12T09:29:28.483Z,31.6
2019-01-12T09:30:17.454Z,31.6
2019-01-12T09:31:08.574Z,31.6
2019-01-12T09:31:58.357Z,31.6
2019-01-12T09:32:48.701Z,31.6
2019-01-12T09:33:38.532Z,31.6
2019-01-12T09:34:29.197Z,31.6
2019-01-12T09:35:19.146Z,31.6
2019-01-12T09:36:08.958Z,31.6
2019-01-12T09:36:58.712Z,31.6
2019-01-12T09:37:49.339Z,31.6
2019-01-12T09:38:38.542Z,31.6
2019-01-12T09:39:29.157Z,31.6
2019-01-12T09:40:19.563Z,34.9
2019-01-12T09:41:09.269Z,42.1
2019-01-12T09:41:59.615Z,38.8
2019-01-12T09:42:49.683Z,40.4
2019-01-12T09:43:39.160Z,40.5
2019-01-12T09:44:29.802Z,40.3
2019-01-12T09:45:19.850Z,39.9
2019-01-12T09:46:09.888Z,39.6
2019-01-12T09:46:59.667Z,39.2
2019-01-12T09:47:49.747Z,38.8
2019-01-12T09:48:39.562Z,38.5
2019-01-12T09:49:29.827Z,38.2
2019-01-12T09:50:19.692Z,37.9
2019-01-12T09:51:09.960Z,37.7
2019-01-12T09:52:00.022Z,37.4
2019-01-12T09:52:50.138Z,37.3
2019-01-12T09:53:40.402Z,37.1
2019-01-12T09:54:30.192Z,36.9
2019-01-12T09:55:20.255Z,36.8
2019-01-12T09:56:10.294Z,36.6
2019-01-12T09:57:00.645Z,36.4
2019-01-12T09:57:50.545Z,36.3
2019-01-12T09:58:40.467Z,36.2
2019-01-12T09:59:32.074Z,36.1
2019-01-12T10:00:20.047Z,35.9
2019-01-12T10:01:10.631Z,35.9
2019-01-12T10:02:01.115Z,36.1
2019-01-12T10:02:50.963Z,42.4
2019-01-12T10:03:40.887Z,41.8
2019-01-12T10:04:31.159Z,43.8
2019-01-12T10:05:20.948Z,47.2
2019-01-12T10:06:11.263Z,46.9
2019-01-12T10:07:00.821Z,45.5
2019-01-12T10:07:51.164Z,44.4
2019-01-12T10:08:40.599Z,43.6
2019-01-12T10:09:31.209Z,42.9
2019-01-12T10:10:23.034Z,42.4
2019-01-12T10:11:11.316Z,41.9
2019-01-12T10:12:01.403Z,41.4
2019-01-12T10:12:51.218Z,41
2019-01-12T10:13:40.928Z,40.7
2019-01-12T10:14:31.551Z,40.3
2019-01-12T10:15:21.619Z,39.9
2019-01-12T10:16:11.654Z,39.6
2019-01-12T10:17:01.805Z,40.4
2019-01-12T10:17:52.059Z,43.9
2019-01-12T10:18:40.986Z,42.9
2019-01-12T10:19:31.610Z,46.1
2019-01-12T10:20:21.958Z,48.6
2019-01-12T10:21:11.719Z,48.5
2019-01-12T10:22:01.825Z,47.1
2019-01-12T10:22:51.010Z,45.5
2019-01-12T10:23:41.368Z,44.3
2019-01-12T10:24:32.500Z,43.6
2019-01-12T10:25:22.573Z,43
2019-01-12T10:26:12.648Z,42.4
2019-01-12T10:27:03.809Z,41.9
2019-01-12T10:27:52.727Z,41.5
2019-01-12T10:28:42.517Z,41.1
2019-01-12T10:29:32.575Z,40.6
2019-01-12T10:30:22.345Z,40.4
2019-01-12T10:31:12.390Z,44.1
2019-01-12T10:32:02.725Z,44.1
2019-01-12T10:32:53.080Z,46.3
2019-01-12T10:33:42.907Z,48.6
2019-01-12T10:34:33.185Z,48.8
2019-01-12T10:35:23.247Z,47.8
2019-01-12T10:36:13.315Z,47.2
2019-01-12T10:37:02.540Z,46.9
2019-01-12T10:37:53.150Z,46.9
2019-01-12T10:38:43.172Z,47.1
2019-01-12T10:39:33.224Z,47.2
2019-01-12T10:40:23.103Z,47.3
2019-01-12T10:41:13.699Z,47.3
2019-01-12T10:42:03.124Z,47.4
2019-01-12T10:42:53.799Z,47.4
2019-01-12T10:43:43.534Z,47.1
2019-01-12T10:44:33.617Z,46.9
2019-01-12T10:45:23.644Z,46.8
2019-01-12T10:46:13.146Z,46.9
2019-01-12T10:47:03.751Z,47.1
2019-01-12T10:47:54.097Z,47.1
2019-01-12T10:48:43.311Z,47.2
2019-01-12T10:49:33.094Z,47.3
2019-01-12T10:50:23.729Z,47.5
2019-01-12T10:51:13.551Z,47.6
2019-01-12T10:52:03.548Z,47.8
2019-01-12T10:52:54.418Z,47.9
2019-01-12T10:55:10.441Z,48
2019-01-12T10:55:59.975Z,47.6
2019-01-12T10:56:50.671Z,47.4
2019-01-12T10:57:40.075Z,47.1
2019-01-12T10:58:30.428Z,46.1
2019-01-12T10:59:20.461Z,45.4
2019-01-12T11:00:09.183Z,44.9
2019-01-12T11:01:00.346Z,43.8
2019-01-12T11:01:50.891Z,43.1
2019-01-12T11:02:40.167Z,42.3
2019-01-12T11:03:30.503Z,41.4
2019-01-12T11:04:21.067Z,40.7
2019-01-12T11:05:10.580Z,40
2019-01-12T11:06:00.388Z,39.3
2019-01-12T11:06:51.018Z,38.8
2019-01-12T11:07:42.386Z,38.3
2019-01-12T11:08:30.823Z,37.8
2019-01-12T11:09:20.580Z,37.4
2019-01-12T11:10:11.215Z,36.8
2019-01-12T11:11:00.708Z,36.3
2019-01-12T11:11:51.313Z,36.4
2019-01-12T11:12:41.095Z,36.6
2019-01-12T11:13:31.700Z,36.8
2019-01-12T11:14:21.769Z,37
2019-01-12T11:15:12.960Z,36.1
2019-01-12T11:16:01.587Z,34.9
2019-01-12T11:16:51.185Z,34.6
2019-01-12T11:17:41.507Z,34.2
2019-01-12T11:18:31.328Z,33.4
2019-01-12T11:19:21.287Z,32.6
2019-01-12T11:20:11.609Z,31.9
2019-01-12T11:21:02.217Z,31.5
2019-01-12T11:21:51.989Z,30.9
2019-01-12T11:22:41.777Z,30.3
2019-01-12T11:23:32.102Z,29.7
2019-01-12T11:24:21.609Z,29.2
2019-01-12T11:25:12.224Z,29
2019-01-12T11:26:02.009Z,29.1
2019-01-12T11:26:52.639Z,29.4
2019-01-12T11:27:41.854Z,29.2
2019-01-12T11:28:32.184Z,29.2
2019-01-12T11:29:21.955Z,29.2
2019-01-12T11:30:12.607Z,29.1
2019-01-12T11:31:02.636Z,29
2019-01-12T11:31:52.189Z,29.1
2019-01-12T11:32:43.011Z,29
2019-01-12T11:33:32.039Z,28.9
2019-01-12T11:34:22.663Z,29.1
2019-01-12T11:35:12.421Z,28.8
2019-01-12T11:36:02.489Z,28.5
2019-01-12T11:36:52.313Z,28
2019-01-12T11:38:31.651Z,28
2019-01-12T11:39:22.531Z,28.3
2019-01-12T11:40:12.488Z,28.2
2019-01-12T11:41:02.826Z,28
2019-01-12T11:41:52.821Z,27.8
2019-01-12T11:42:43.745Z,27.5
2019-01-12T11:43:32.720Z,27.4
2019-01-12T11:44:23.043Z,27.4
2019-01-12T11:45:13.651Z,27.1
2019-01-12T11:46:03.693Z,27
2019-01-12T11:46:53.983Z,27
2019-01-12T11:47:43.235Z,26.8
2019-01-12T11:48:33.553Z,26.9
2019-01-12T11:49:23.618Z,26.9
2019-01-12T11:50:13.947Z,26.6
2019-01-12T11:51:03.720Z,26.2
2019-01-12T11:51:53.486Z,25.8
2019-01-12T11:52:44.407Z,25.7
2019-01-12T11:53:33.715Z,25.6
2019-01-12T11:54:24.230Z,25.6
2019-01-12T11:55:14.310Z,25.7
2019-01-12T11:56:04.612Z,25.7
2019-01-12T11:56:53.925Z,25.6
2019-01-12T11:57:44.269Z,25.5
2019-01-12T11:58:35.180Z,25.5
2019-01-12T11:59:24.090Z,25.5
2019-01-12T12:00:14.148Z,25.6
2019-01-12T12:01:03.657Z,25.8
2019-01-12T12:01:53.978Z,25.8
2019-01-12T12:02:44.064Z,25.9
2019-01-12T12:03:34.204Z,26.1
2019-01-12T12:04:23.953Z,26.1
2019-01-12T12:05:13.748Z,26.1
2019-01-12T12:06:03.521Z,26.2
2019-01-12T12:06:53.859Z,26.3
2019-01-12T12:07:44.112Z,26.5
2019-01-12T12:08:34.942Z,26.8
2019-01-12T12:09:25.570Z,26.9
2019-01-12T12:10:15.314Z,27.1
2019-01-12T12:11:04.552Z,27.3
2019-01-12T12:11:55.443Z,27.3
2019-01-12T12:12:45.771Z,27.4
2019-01-12T12:13:35.819Z,27.5
2019-01-12T12:14:25.624Z,27.8
2019-01-12T12:15:15.396Z,27.9
2019-01-12T12:16:08.034Z,28.2
2019-01-12T12:16:55.510Z,28.4
2019-01-12T12:17:46.106Z,28.6
2019-01-12T12:18:36.168Z,28.7
2019-01-12T12:19:26.235Z,28.9
2019-01-12T12:20:16.339Z,29
2019-01-12T12:21:06.353Z,29.1
2019-01-12T12:21:56.160Z,29.3
2019-01-12T12:22:46.175Z,29.1
2019-01-12T12:23:35.403Z,28.8
2019-01-12T12:24:26.315Z,28.4
2019-01-12T12:25:16.095Z,28.3
2019-01-12T12:26:06.700Z,28.4
2019-01-12T12:26:56.588Z,28.4
2019-01-12T12:27:46.264Z,28.6
2019-01-12T12:28:35.797Z,28.4
2019-01-12T12:29:26.673Z,28.5
2019-01-12T12:30:16.158Z,28.6
2019-01-12T12:31:06.480Z,28.6
2019-01-12T12:31:56.923Z,28.7
2019-01-12T12:32:46.880Z,28.8
2019-01-12T12:33:35.561Z,28.9
2019-01-12T12:34:27.050Z,28.9
2019-01-12T12:35:17.348Z,28.7
2019-01-12T12:36:06.285Z,28.8
2019-01-12T12:36:56.915Z,28.8
2019-01-12T12:37:46.693Z,28.6
2019-01-12T12:38:37.000Z,28.4
2019-01-12T12:39:27.357Z,28.4
2019-01-12T12:40:16.651Z,28.1
2019-01-12T12:41:06.994Z,28.1
2019-01-12T12:41:57.379Z,28.1
2019-01-12T12:42:47.592Z,28.3
2019-01-12T12:43:37.939Z,28.5
2019-01-12T12:44:28.022Z,28.5
2019-01-12T12:45:17.817Z,28.5
2019-01-12T12:46:07.834Z,28.6
2019-01-12T12:46:57.387Z,28.6
2019-01-12T12:47:47.943Z,28.5
2019-01-12T12:48:38.259Z,28.6
2019-01-12T12:49:28.028Z,28.6
2019-01-12T12:50:17.819Z,28.6
2019-01-12T12:51:08.426Z,28.7
2019-01-12T12:51:58.229Z,28.6
2019-01-12T12:52:47.448Z,28.6
2019-01-12T12:53:39.496Z,28.4
2019-01-12T12:54:28.110Z,28.2
2019-01-12T12:55:17.651Z,28.3
2019-01-12T12:56:08.783Z,28.4
2019-01-12T12:56:58.014Z,28.5
2019-01-12T12:57:48.344Z,28.6
2019-01-12T12:58:38.426Z,28.7
2019-01-12T12:59:28.034Z,28.7
2019-01-12T13:00:18.323Z,28.6
2019-01-12T13:01:08.857Z,28.7
2019-01-12T13:01:58.905Z,28.8
2019-01-12T13:02:48.983Z,28.8
2019-01-12T13:03:39.038Z,28.8
2019-01-12T13:04:28.555Z,28.9
2019-01-12T13:05:18.875Z,28.9
2019-01-12T13:06:08.921Z,28.9
2019-01-12T13:06:58.760Z,29
2019-01-12T13:07:49.586Z,29.1
2019-01-12T13:08:39.655Z,29.2
2019-01-12T13:09:29.433Z,29.3
2019-01-12T13:10:19.490Z,29.3
2019-01-12T13:11:08.743Z,29.4
2019-01-12T13:11:59.883Z,29.4
2019-01-12T13:12:49.121Z,29.4
2019-01-12T13:13:39.447Z,29.4
2019-01-12T13:14:30.055Z,29.5
2019-01-12T13:15:19.585Z,29.6
2019-01-12T13:16:09.927Z,29.6
2019-01-12T13:17:00.273Z,29.6
2019-01-12T13:17:49.471Z,29.6
2019-01-12T13:18:39.782Z,29.6
2019-01-12T13:19:29.914Z,29.7
2019-01-12T13:20:21.125Z,29.8
2019-01-12T13:21:09.994Z,29.9
2019-01-12T13:22:00.047Z,29.9
2019-01-12T13:22:51.677Z,30
2019-01-12T13:23:40.449Z,30
2019-01-12T13:24:30.479Z,30
2019-01-12T13:25:20.051Z,30.1
2019-01-12T13:26:10.617Z,30.1
2019-01-12T13:27:00.959Z,30.1
2019-01-12T13:27:50.166Z,30.2
2019-01-12T13:28:40.209Z,30.2
2019-01-12T13:29:30.531Z,30.3
2019-01-12T13:30:20.883Z,30.3
2019-01-12T13:31:10.666Z,30.3
2019-01-12T13:32:00.739Z,30.3
2019-01-12T13:32:50.764Z,30.3
2019-01-12T13:33:40.314Z,30.3
2019-01-12T13:34:31.176Z,30.3
2019-01-12T13:35:21.246Z,30.3
2019-01-12T13:36:11.011Z,30.3
2019-01-12T13:37:01.048Z,30.3
2019-01-12T13:37:51.723Z,30.3
2019-01-12T13:38:41.186Z,30.3
2019-01-12T13:39:36.866Z,30.3
2019-01-12T13:40:22.511Z,30.3
2019-01-12T13:41:11.461Z,30.3
2019-01-12T13:42:00.937Z,30.3
2019-01-12T13:42:50.918Z,30.3
2019-01-12T13:43:41.783Z,30.3
2019-01-12T13:44:31.306Z,30.3
2019-01-12T13:45:22.191Z,30.2
2019-01-12T13:46:11.685Z,30.2
2019-01-12T13:47:01.737Z,30.2
2019-01-12T13:47:52.103Z,30.1
2019-01-12T13:48:41.930Z,30.1
2019-01-12T13:49:31.930Z,29.8
2019-01-12T13:50:20.950Z,29.3
2019-01-12T13:51:12.308Z,29
2019-01-12T13:52:02.366Z,28.9
2019-01-12T13:52:52.742Z,28.8
2019-01-12T13:53:41.445Z,28.8
2019-01-12T13:54:32.607Z,28.8
2019-01-12T13:55:22.685Z,28.8
2019-01-12T13:56:12.375Z,28.7
2019-01-12T13:57:02.714Z,28.6
2019-01-12T13:57:53.597Z,28.5
2019-01-12T13:58:43.098Z,28.4
2019-01-12T13:59:32.881Z,28.3
2019-01-12T14:00:22.410Z,28.3
2019-01-12T14:01:13.287Z,28.3
2019-01-12T14:02:03.356Z,28.2
2019-01-12T14:02:53.326Z,28.1
2019-01-12T14:03:42.898Z,28.1
2019-01-12T14:04:32.952Z,28
2019-01-12T14:05:23.626Z,28
2019-01-12T14:06:13.617Z,27.9
2019-01-12T14:07:04.927Z,28
2019-01-12T14:08:01.226Z,28
2019-01-12T14:08:43.204Z,27.9
2019-01-12T14:10:23.356Z,27.8
2019-01-12T14:11:12.887Z,27.8
2019-01-12T14:12:03.282Z,27.8
2019-01-12T14:12:53.336Z,27.7
2019-01-12T14:13:44.425Z,27.7
2019-01-12T14:14:33.909Z,27.6
2019-01-12T14:15:23.433Z,27.6
2019-01-12T14:16:13.291Z,27.5
2019-01-12T14:17:04.136Z,27.4
2019-01-12T14:17:54.175Z,27.4
2019-01-12T14:18:43.726Z,27.3
2019-01-12T14:19:34.261Z,27.3
2019-01-12T14:20:24.335Z,27.3
2019-01-12T14:21:14.433Z,27.2
2019-01-12T14:22:04.151Z,27.1
2019-01-12T14:22:54.770Z,27.1
2019-01-12T14:23:44.544Z,27
2019-01-12T14:24:34.884Z,26.9
2019-01-12T14:25:24.396Z,26.9
2019-01-12T14:26:14.450Z,26.8
2019-01-12T14:27:04.498Z,26.6
2019-01-12T14:27:58.903Z,25.9
2019-01-12T14:28:44.110Z,25.1
2019-01-12T14:29:34.673Z,24.4
2019-01-12T14:30:24.990Z,23.9
2019-01-12T14:31:15.064Z,23.6
2019-01-12T14:32:05.384Z,23.4
2019-01-12T14:32:55.208Z,23.3
2019-01-12T14:33:45.265Z,23.1
2019-01-12T14:34:35.057Z,23
2019-01-12T14:35:24.526Z,22.9
2019-01-12T14:36:15.118Z,22.8
2019-01-12T14:37:05.195Z,22.7
2019-01-12T14:37:55.802Z,22.6
2019-01-12T14:38:45.640Z,22.6
2019-01-12T14:39:35.362Z,22.4
2019-01-12T14:40:25.969Z,22.4
2019-01-12T14:41:15.255Z,22.3
2019-01-12T14:42:05.266Z,22.2
2019-01-12T14:42:55.577Z,22.2
2019-01-12T14:43:45.914Z,22.1
2019-01-12T14:44:34.999Z,22
2019-01-12T14:45:25.757Z,21.9
2019-01-12T14:46:15.839Z,21.9
2019-01-12T14:47:06.281Z,21.9
2019-01-12T14:47:55.932Z,21.8
2019-01-12T14:48:46.019Z,21.8
2019-01-12T14:49:36.614Z,21.7
2019-01-12T14:50:25.821Z,21.6
2019-01-12T14:51:16.249Z,21.6
2019-01-12T14:52:05.710Z,21.6
2019-01-12T14:52:56.009Z,21.4
2019-01-12T14:53:46.355Z,21.3
2019-01-12T14:54:36.948Z,21.1
2019-01-12T14:55:27.030Z,20.9
2019-01-12T14:56:16.506Z,20.7
2019-01-12T14:57:06.846Z,20.5
2019-01-12T14:58:05.743Z,20.4
2019-01-12T14:58:46.891Z,20.3
2019-01-12T14:59:36.269Z,20.1
2019-01-12T15:00:27.057Z,20.1
2019-01-12T15:01:17.032Z,19.9
2019-01-12T15:02:05.791Z,19.9
2019-01-12T15:02:56.867Z,19.8
2019-01-12T15:03:47.534Z,19.7
2019-01-12T15:04:37.438Z,19.6
2019-01-12T15:05:27.937Z,19.6
2019-01-12T15:06:17.501Z,19.6
2019-01-12T15:07:07.441Z,19.5
2019-01-12T15:07:57.580Z,19.4
2019-01-12T15:08:47.368Z,19.4
2019-01-12T15:09:37.410Z,19.4
2019-01-12T15:10:26.719Z,19.3
2019-01-12T15:11:17.542Z,19.3
2019-01-12T15:12:08.128Z,19.2
2019-01-12T15:12:57.912Z,19.2
2019-01-12T15:13:47.981Z,19.2
2019-01-12T15:14:38.305Z,19.1
2019-01-12T15:15:27.800Z,19.1
2019-01-12T15:16:18.403Z,19
2019-01-12T15:17:22.570Z,19
2019-01-12T15:17:57.964Z,18.9
2019-01-12T15:18:48.575Z,18.9
2019-01-12T15:19:38.348Z,18.9
2019-01-12T15:20:28.146Z,18.9
2019-01-12T15:21:17.913Z,18.9
2019-01-12T15:22:08.538Z,18.8
2019-01-12T15:22:58.876Z,18.8
2019-01-12T15:23:48.929Z,18.8
2019-01-12T15:24:38.696Z,18.8
2019-01-12T15:25:29.046Z,18.8
2019-01-12T15:30:29.098Z,18.6
2019-01-12T15:31:21.758Z,18.6
2019-01-12T15:32:09.488Z,18.6
2019-01-12T15:32:58.998Z,18.6
2019-01-12T15:33:48.535Z,18.6
2019-01-12T15:34:39.375Z,18.6
2019-01-12T15:35:29.445Z,18.6
2019-01-12T15:36:19.485Z,18.5
2019-01-12T15:37:09.540Z,18.5
2019-01-12T15:37:59.610Z,18.5
2019-01-12T15:38:49.397Z,18.5
2019-01-12T15:39:39.716Z,18.5
2019-01-12T15:40:29.485Z,18.4
2019-01-12T15:41:19.825Z,18.4
2019-01-12T15:42:09.612Z,18.4
2019-01-12T15:42:59.642Z,18.4
2019-01-12T15:43:49.715Z,18.4
2019-01-12T15:44:39.770Z,18.4